sensor_id;sensor_type;location;lat;lon;timestamp;temperature;humidity
3488;DHT22;38546;48.170;11.724;2023-03-04T00:00:18;2.00;99.90
3488;DHT22;38546;48.170;11.724;2023-03-04T00:03:08;2.10;99.90
3488;DHT22;38546;48.170;11.724;2023-03-04T00:06:03;2.10;99.90
3488;DHT22;38546;48.170;11.724;2023-03-04T00:08:53;2.20;99.90
3488;DHT22;38546;48.170;11.724;2023-03-04T00:11:43;2.20;99.90
3488;DHT22;38546;48.170;11.724;2023-03-04T00:14:32;2.10;99.90
3488;DHT22;38546;48.170;11.724;2023-03-04T00:17:21;2.10;99.90
3488;DHT22;38546;48.170;11.724;2023-03-04T00:20:11;2.20;99.90
3488;DHT22;38546;48.170;11.724;2023-03-04T00:23:01;2.00;99.90
3488;DHT22;38546;48.170;11.724;2023-03-04T00:25:50;1.90;99.90
3488;DHT22;38546;48.170;11.724;2023-03-04T00:28:39;1.80;99.90
3488;DHT22;38546;48.170;11.724;2023-03-04T00:31:29;1.90;99.90
3488;DHT22;38546;48.170;11.724;2023-03-04T00:34:19;1.80;99.90
3488;DHT22;38546;48.170;11.724;2023-03-04T00:37:09;1.80;99.90
3488;DHT22;38546;48.170;11.724;2023-03-04T00:39:59;1.80;99.90
3488;DHT22;38546;48.170;11.724;2023-03-04T00:42:48;1.70;99.90
3488;DHT22;38546;48.170;11.724;2023-03-04T00:45:37;1.70;99.90
3488;DHT22;38546;48.170;11.724;2023-03-04T00:48:26;1.70;99.90
3488;DHT22;38546;48.170;11.724;2023-03-04T00:51:15;1.70;99.90
3488;DHT22;38546;48.170;11.724;2023-03-04T00:54:04;1.70;99.90
3488;DHT22;38546;48.170;11.724;2023-03-04T00:56:53;1.60;99.90
3488;DHT22;38546;48.170;11.724;2023-03-04T00:59:42;1.50;99.90
3488;DHT22;38546;48.170;11.724;2023-03-04T01:02:32;1.50;99.90
3488;DHT22;38546;48.170;11.724;2023-03-04T01:05:21;1.60;99.90
3488;DHT22;38546;48.170;11.724;2023-03-04T01:08:11;1.50;99.90
3488;DHT22;38546;48.170;11.724;2023-03-04T01:11:00;1.40;99.90
3488;DHT22;38546;48.170;11.724;2023-03-04T01:13:49;1.40;99.90
3488;DHT22;38546;48.170;11.724;2023-03-04T01:16:39;1.40;99.90
3488;DHT22;38546;48.170;11.724;2023-03-04T01:19:28;1.30;99.90
3488;DHT22;38546;48.170;11.724;2023-03-04T01:22:17;1.30;99.90
3488;DHT22;38546;48.170;11.724;2023-03-04T01:25:08;1.20;99.90
3488;DHT22;38546;48.170;11.724;2023-03-04T01:27:57;1.30;99.90
3488;DHT22;38546;48.170;11.724;2023-03-04T01:30:48;1.30;99.90
3488;DHT22;38546;48.170;11.724;2023-03-04T01:33:37;1.20;99.90
3488;DHT22;38546;48.170;11.724;2023-03-04T01:36:27;1.20;99.90
3488;DHT22;38546;48.170;11.724;2023-03-04T01:39:16;1.20;99.90
3488;DHT22;38546;48.170;11.724;2023-03-04T01:42:08;1.20;99.90
3488;DHT22;38546;48.170;11.724;2023-03-04T01:45:06;1.20;99.90
3488;DHT22;38546;48.170;11.724;2023-03-04T01:47:58;1.20;99.90
3488;DHT22;38546;48.170;11.724;2023-03-04T01:50:47;1.10;99.90
3488;DHT22;38546;48.170;11.724;2023-03-04T01:53:37;1.10;99.90
3488;DHT22;38546;48.170;11.724;2023-03-04T01:56:34;1.10;99.90
3488;DHT22;38546;48.170;11.724;2023-03-04T01:59:29;1.10;99.90
3488;DHT22;38546;48.170;11.724;2023-03-04T02:02:19;1.10;99.90
3488;DHT22;38546;48.170;11.724;2023-03-04T02:05:08;1.20;99.90
3488;DHT22;38546;48.170;11.724;2023-03-04T02:07:58;1.10;99.90
3488;DHT22;38546;48.170;11.724;2023-03-04T02:10:49;1.10;99.90
3488;DHT22;38546;48.170;11.724;2023-03-04T02:13:39;1.00;99.90
3488;DHT22;38546;48.170;11.724;2023-03-04T02:16:28;1.10;99.90
3488;DHT22;38546;48.170;11.724;2023-03-04T02:19:36;1.10;99.90
3488;DHT22;38546;48.170;11.724;2023-03-04T02:26:26;1.00;99.90
3488;DHT22;38546;48.170;11.724;2023-03-04T02:29:16;0.90;99.90
3488;DHT22;38546;48.170;11.724;2023-03-04T02:32:09;0.90;99.90
3488;DHT22;38546;48.170;11.724;2023-03-04T02:35:00;0.90;99.90
3488;DHT22;38546;48.170;11.724;2023-03-04T02:37:50;0.90;99.90
3488;DHT22;38546;48.170;11.724;2023-03-04T02:40:41;0.90;99.90
3488;DHT22;38546;48.170;11.724;2023-03-04T02:43:33;0.80;99.90
3488;DHT22;38546;48.170;11.724;2023-03-04T02:46:23;0.90;99.90
3488;DHT22;38546;48.170;11.724;2023-03-04T02:49:12;0.90;99.90
3488;DHT22;38546;48.170;11.724;2023-03-04T02:55:16;1.00;99.90
3488;DHT22;38546;48.170;11.724;2023-03-04T02:58:05;1.00;99.90
3488;DHT22;38546;48.170;11.724;2023-03-04T03:00:55;0.90;99.90
3488;DHT22;38546;48.170;11.724;2023-03-04T03:03:45;0.90;99.90
3488;DHT22;38546;48.170;11.724;2023-03-04T03:06:35;1.00;99.90
3488;DHT22;38546;48.170;11.724;2023-03-04T03:09:24;1.00;99.90
3488;DHT22;38546;48.170;11.724;2023-03-04T03:12:13;0.90;99.90
3488;DHT22;38546;48.170;11.724;2023-03-04T03:15:02;0.90;99.90
3488;DHT22;38546;48.170;11.724;2023-03-04T03:17:52;0.80;99.90
3488;DHT22;38546;48.170;11.724;2023-03-04T03:20:41;0.80;99.90
3488;DHT22;38546;48.170;11.724;2023-03-04T03:23:30;0.80;99.90
3488;DHT22;38546;48.170;11.724;2023-03-04T03:26:20;0.80;99.90
3488;DHT22;38546;48.170;11.724;2023-03-04T03:29:09;0.70;99.90
3488;DHT22;38546;48.170;11.724;2023-03-04T03:31:58;0.70;99.90
3488;DHT22;38546;48.170;11.724;2023-03-04T03:34:47;0.70;99.90
3488;DHT22;38546;48.170;11.724;2023-03-04T03:37:37;0.60;99.90
3488;DHT22;38546;48.170;11.724;2023-03-04T03:40:26;0.60;99.90
3488;DHT22;38546;48.170;11.724;2023-03-04T03:43:15;0.60;99.90
3488;DHT22;38546;48.170;11.724;2023-03-04T03:46:04;0.50;99.90
3488;DHT22;38546;48.170;11.724;2023-03-04T03:48:54;0.50;99.90
3488;DHT22;38546;48.170;11.724;2023-03-04T03:51:43;0.50;99.90
3488;DHT22;38546;48.170;11.724;2023-03-04T03:54:33;0.40;99.90
3488;DHT22;38546;48.170;11.724;2023-03-04T03:57:22;0.40;99.90
3488;DHT22;38546;48.170;11.724;2023-03-04T04:00:12;0.30;99.90
3488;DHT22;38546;48.170;11.724;2023-03-04T04:03:02;0.40;99.90
3488;DHT22;38546;48.170;11.724;2023-03-04T04:05:52;0.40;99.90
3488;DHT22;38546;48.170;11.724;2023-03-04T04:08:41;0.40;99.90
3488;DHT22;38546;48.170;11.724;2023-03-04T04:11:30;0.40;99.90
3488;DHT22;38546;48.170;11.724;2023-03-04T04:14:20;0.30;99.90
3488;DHT22;38546;48.170;11.724;2023-03-04T04:17:09;0.30;99.90
3488;DHT22;38546;48.170;11.724;2023-03-04T04:19:59;0.30;99.90
3488;DHT22;38546;48.170;11.724;2023-03-04T04:22:48;0.30;99.90
3488;DHT22;38546;48.170;11.724;2023-03-04T04:25:38;0.20;99.90
3488;DHT22;38546;48.170;11.724;2023-03-04T04:28:27;0.30;99.90
3488;DHT22;38546;48.170;11.724;2023-03-04T04:31:16;0.30;99.90
3488;DHT22;38546;48.170;11.724;2023-03-04T04:34:05;0.30;99.90
3488;DHT22;38546;48.170;11.724;2023-03-04T04:36:54;0.40;99.90
3488;DHT22;38546;48.170;11.724;2023-03-04T04:39:44;0.40;99.90
3488;DHT22;38546;48.170;11.724;2023-03-04T04:42:33;0.50;99.90
3488;DHT22;38546;48.170;11.724;2023-03-04T04:45:23;0.40;99.90
3488;DHT22;38546;48.170;11.724;2023-03-04T04:48:12;0.40;99.90
3488;DHT22;38546;48.170;11.724;2023-03-04T04:51:02;0.30;99.90
3488;DHT22;38546;48.170;11.724;2023-03-04T04:53:51;0.30;99.90
3488;DHT22;38546;48.170;11.724;2023-03-04T04:56:40;0.30;99.90
3488;DHT22;38546;48.170;11.724;2023-03-04T04:59:30;0.30;99.90
3488;DHT22;38546;48.170;11.724;2023-03-04T05:02:19;0.30;99.90
3488;DHT22;38546;48.170;11.724;2023-03-04T05:05:08;0.40;99.90
3488;DHT22;38546;48.170;11.724;2023-03-04T05:07:58;0.40;99.90
3488;DHT22;38546;48.170;11.724;2023-03-04T05:10:47;0.30;99.90
3488;DHT22;38546;48.170;11.724;2023-03-04T05:13:36;0.30;99.90
3488;DHT22;38546;48.170;11.724;2023-03-04T05:16:26;0.30;99.90
3488;DHT22;38546;48.170;11.724;2023-03-04T05:19:15;0.30;99.90
3488;DHT22;38546;48.170;11.724;2023-03-04T05:22:05;0.30;99.90
3488;DHT22;38546;48.170;11.724;2023-03-04T05:24:54;0.30;99.90
3488;DHT22;38546;48.170;11.724;2023-03-04T05:27:44;0.30;99.90
3488;DHT22;38546;48.170;11.724;2023-03-04T05:30:33;0.20;99.90
3488;DHT22;38546;48.170;11.724;2023-03-04T05:33:22;0.20;99.90
3488;DHT22;38546;48.170;11.724;2023-03-04T05:36:11;0.10;99.90
3488;DHT22;38546;48.170;11.724;2023-03-04T05:39:00;0.20;99.90
3488;DHT22;38546;48.170;11.724;2023-03-04T05:41:50;0.10;99.90
3488;DHT22;38546;48.170;11.724;2023-03-04T05:44:39;0.10;99.90
3488;DHT22;38546;48.170;11.724;2023-03-04T05:47:28;0.10;99.90
3488;DHT22;38546;48.170;11.724;2023-03-04T05:50:17;0.10;99.90
3488;DHT22;38546;48.170;11.724;2023-03-04T05:53:08;0.30;99.90
3488;DHT22;38546;48.170;11.724;2023-03-04T05:55:57;0.30;99.90
3488;DHT22;38546;48.170;11.724;2023-03-04T05:58:48;0.20;99.90
3488;DHT22;38546;48.170;11.724;2023-03-04T06:01:37;0.10;99.90
3488;DHT22;38546;48.170;11.724;2023-03-04T06:04:26;0.20;99.90
3488;DHT22;38546;48.170;11.724;2023-03-04T06:07:15;0.20;99.90
3488;DHT22;38546;48.170;11.724;2023-03-04T06:10:05;0.20;99.90
3488;DHT22;38546;48.170;11.724;2023-03-04T06:12:55;0.20;99.90
3488;DHT22;38546;48.170;11.724;2023-03-04T06:15:44;0.20;99.90
3488;DHT22;38546;48.170;11.724;2023-03-04T06:18:34;0.20;99.90
3488;DHT22;38546;48.170;11.724;2023-03-04T06:21:23;0.10;99.90
3488;DHT22;38546;48.170;11.724;2023-03-04T06:24:12;0.20;99.90
3488;DHT22;38546;48.170;11.724;2023-03-04T06:27:02;0.20;99.90
3488;DHT22;38546;48.170;11.724;2023-03-04T06:29:51;0.20;99.90
3488;DHT22;38546;48.170;11.724;2023-03-04T06:32:41;0.20;99.90
3488;DHT22;38546;48.170;11.724;2023-03-04T06:35:32;0.20;99.90
3488;DHT22;38546;48.170;11.724;2023-03-04T06:38:21;0.20;99.90
3488;DHT22;38546;48.170;11.724;2023-03-04T06:41:12;0.20;99.90
3488;DHT22;38546;48.170;11.724;2023-03-04T06:44:01;0.40;99.90
3488;DHT22;38546;48.170;11.724;2023-03-04T06:46:51;0.50;99.90
3488;DHT22;38546;48.170;11.724;2023-03-04T06:49:40;0.50;99.90
3488;DHT22;38546;48.170;11.724;2023-03-04T06:52:29;0.70;99.90
3488;DHT22;38546;48.170;11.724;2023-03-04T06:55:19;0.80;99.90
3488;DHT22;38546;48.170;11.724;2023-03-04T06:58:08;0.90;99.90
3488;DHT22;38546;48.170;11.724;2023-03-04T07:00:56;1.10;99.90
3488;DHT22;38546;48.170;11.724;2023-03-04T07:03:47;1.30;99.90
3488;DHT22;38546;48.170;11.724;2023-03-04T07:06:36;1.30;99.90
3488;DHT22;38546;48.170;11.724;2023-03-04T07:09:25;1.30;99.90
3488;DHT22;38546;48.170;11.724;2023-03-04T07:12:14;1.50;99.90
3488;DHT22;38546;48.170;11.724;2023-03-04T07:15:03;1.60;99.90
3488;DHT22;38546;48.170;11.724;2023-03-04T07:17:53;1.80;99.90
3488;DHT22;38546;48.170;11.724;2023-03-04T07:20:42;1.90;99.90
3488;DHT22;38546;48.170;11.724;2023-03-04T07:23:32;2.00;99.90
3488;DHT22;38546;48.170;11.724;2023-03-04T07:26:22;2.30;99.90
3488;DHT22;38546;48.170;11.724;2023-03-04T07:29:11;2.60;99.90
3488;DHT22;38546;48.170;11.724;2023-03-04T07:32:00;2.50;99.90
3488;DHT22;38546;48.170;11.724;2023-03-04T07:34:50;2.60;99.90
3488;DHT22;38546;48.170;11.724;2023-03-04T07:37:39;2.80;99.90
3488;DHT22;38546;48.170;11.724;2023-03-04T07:40:28;3.00;99.90
3488;DHT22;38546;48.170;11.724;2023-03-04T07:43:17;3.00;99.90
3488;DHT22;38546;48.170;11.724;2023-03-04T07:46:06;3.10;99.90
3488;DHT22;38546;48.170;11.724;2023-03-04T07:48:56;3.20;99.90
3488;DHT22;38546;48.170;11.724;2023-03-04T07:51:45;3.30;99.90
3488;DHT22;38546;48.170;11.724;2023-03-04T07:54:34;3.40;99.90
3488;DHT22;38546;48.170;11.724;2023-03-04T07:57:24;3.40;99.90
3488;DHT22;38546;48.170;11.724;2023-03-04T08:00:15;3.60;99.90
3488;DHT22;38546;48.170;11.724;2023-03-04T08:03:04;3.60;99.90
3488;DHT22;38546;48.170;11.724;2023-03-04T08:05:53;3.60;99.90
3488;DHT22;38546;48.170;11.724;2023-03-04T08:08:42;3.60;99.90
3488;DHT22;38546;48.170;11.724;2023-03-04T08:11:33;3.60;99.90
3488;DHT22;38546;48.170;11.724;2023-03-04T08:14:23;3.70;99.90
3488;DHT22;38546;48.170;11.724;2023-03-04T08:17:12;3.60;99.90
3488;DHT22;38546;48.170;11.724;2023-03-04T08:20:03;3.60;99.90
3488;DHT22;38546;48.170;11.724;2023-03-04T08:22:53;3.70;99.90
3488;DHT22;38546;48.170;11.724;2023-03-04T08:25:42;3.80;99.90
3488;DHT22;38546;48.170;11.724;2023-03-04T08:28:31;3.90;99.90
3488;DHT22;38546;48.170;11.724;2023-03-04T08:31:21;4.00;99.90
3488;DHT22;38546;48.170;11.724;2023-03-04T08:34:12;4.00;99.90
3488;DHT22;38546;48.170;11.724;2023-03-04T08:37:02;4.00;99.90
3488;DHT22;38546;48.170;11.724;2023-03-04T08:39:52;3.90;99.90
3488;DHT22;38546;48.170;11.724;2023-03-04T08:42:41;4.00;99.90
3488;DHT22;38546;48.170;11.724;2023-03-04T08:45:30;4.20;99.90
3488;DHT22;38546;48.170;11.724;2023-03-04T08:48:21;4.20;99.90
3488;DHT22;38546;48.170;11.724;2023-03-04T08:51:12;4.30;99.90
3488;DHT22;38546;48.170;11.724;2023-03-04T08:54:03;4.40;99.90
3488;DHT22;38546;48.170;11.724;2023-03-04T08:56:53;4.40;99.90
3488;DHT22;38546;48.170;11.724;2023-03-04T08:59:42;4.40;99.90
3488;DHT22;38546;48.170;11.724;2023-03-04T09:02:31;4.40;99.90
3488;DHT22;38546;48.170;11.724;2023-03-04T09:05:20;4.60;99.90
3488;DHT22;38546;48.170;11.724;2023-03-04T09:08:09;4.40;99.90
3488;DHT22;38546;48.170;11.724;2023-03-04T09:10:59;4.50;99.90
3488;DHT22;38546;48.170;11.724;2023-03-04T09:13:48;4.50;99.90
3488;DHT22;38546;48.170;11.724;2023-03-04T09:16:39;4.50;99.90
3488;DHT22;38546;48.170;11.724;2023-03-04T09:19:29;4.60;99.90
3488;DHT22;38546;48.170;11.724;2023-03-04T09:22:18;5.00;99.90
3488;DHT22;38546;48.170;11.724;2023-03-04T09:25:10;4.90;99.90
3488;DHT22;38546;48.170;11.724;2023-03-04T09:28:00;5.20;99.90
3488;DHT22;38546;48.170;11.724;2023-03-04T09:30:49;5.40;99.90
3488;DHT22;38546;48.170;11.724;2023-03-04T09:33:38;5.70;99.90
3488;DHT22;38546;48.170;11.724;2023-03-04T09:36:29;5.80;99.90
3488;DHT22;38546;48.170;11.724;2023-03-04T09:39:18;5.70;99.90
3488;DHT22;38546;48.170;11.724;2023-03-04T09:42:23;5.80;99.90
3488;DHT22;38546;48.170;11.724;2023-03-04T09:45:20;5.70;99.90
3488;DHT22;38546;48.170;11.724;2023-03-04T09:56:22;6.20;99.90
3488;DHT22;38546;48.170;11.724;2023-03-04T09:59:34;6.40;99.90
3488;DHT22;38546;48.170;11.724;2023-03-04T10:03:14;6.50;99.90
3488;DHT22;38546;48.170;11.724;2023-03-04T10:06:16;6.50;99.90
3488;DHT22;38546;48.170;11.724;2023-03-04T10:09:14;6.60;99.90
3488;DHT22;38546;48.170;11.724;2023-03-04T10:12:09;6.40;99.90
3488;DHT22;38546;48.170;11.724;2023-03-04T10:15:06;6.50;99.90
3488;DHT22;38546;48.170;11.724;2023-03-04T10:18:24;6.70;99.90
3488;DHT22;38546;48.170;11.724;2023-03-04T10:21:32;6.70;99.90
3488;DHT22;38546;48.170;11.724;2023-03-04T10:24:28;6.60;99.90
3488;DHT22;38546;48.170;11.724;2023-03-04T10:27:18;6.60;99.90
3488;DHT22;38546;48.170;11.724;2023-03-04T10:30:22;6.60;99.90
3488;DHT22;38546;48.170;11.724;2023-03-04T10:33:30;6.60;99.90
3488;DHT22;38546;48.170;11.724;2023-03-04T10:40:00;6.60;99.90
3488;DHT22;38546;48.170;11.724;2023-03-04T10:42:49;6.70;99.90
3488;DHT22;38546;48.170;11.724;2023-03-04T10:45:40;6.80;99.90
3488;DHT22;38546;48.170;11.724;2023-03-04T10:48:30;6.80;99.90
3488;DHT22;38546;48.170;11.724;2023-03-04T10:51:23;7.00;99.90
3488;DHT22;38546;48.170;11.724;2023-03-04T10:54:40;7.20;99.90
3488;DHT22;38546;48.170;11.724;2023-03-04T10:57:38;7.20;99.90
3488;DHT22;38546;48.170;11.724;2023-03-04T11:00:33;7.10;99.90
3488;DHT22;38546;48.170;11.724;2023-03-04T11:03:34;7.10;99.90
3488;DHT22;38546;48.170;11.724;2023-03-04T11:06:24;7.10;99.90
3488;DHT22;38546;48.170;11.724;2023-03-04T11:09:32;7.10;99.90
3488;DHT22;38546;48.170;11.724;2023-03-04T11:12:31;7.30;99.90
3488;DHT22;38546;48.170;11.724;2023-03-04T11:15:25;7.40;99.90
3488;DHT22;38546;48.170;11.724;2023-03-04T11:18:19;7.20;99.90
3488;DHT22;38546;48.170;11.724;2023-03-04T11:21:28;7.20;99.90
3488;DHT22;38546;48.170;11.724;2023-03-04T11:24:25;7.50;99.90
3488;DHT22;38546;48.170;11.724;2023-03-04T11:27:24;7.50;99.90
3488;DHT22;38546;48.170;11.724;2023-03-04T11:30:43;7.40;99.90
3488;DHT22;38546;48.170;11.724;2023-03-04T11:34:01;7.30;99.90
3488;DHT22;38546;48.170;11.724;2023-03-04T11:36:58;7.30;99.90
3488;DHT22;38546;48.170;11.724;2023-03-04T11:41:50;7.50;99.90
3488;DHT22;38546;48.170;11.724;2023-03-04T11:44:44;7.70;99.90
3488;DHT22;38546;48.170;11.724;2023-03-04T11:59:59;7.40;99.90
3488;DHT22;38546;48.170;11.724;2023-03-04T12:04:23;7.40;99.90
3488;DHT22;38546;48.170;11.724;2023-03-04T12:08:58;7.10;99.90
3488;DHT22;38546;48.170;11.724;2023-03-04T12:15:48;7.10;99.90
3488;DHT22;38546;48.170;11.724;2023-03-04T12:31:53;6.90;99.90
3488;DHT22;38546;48.170;11.724;2023-03-04T12:38:26;7.10;99.90
3488;DHT22;38546;48.170;11.724;2023-03-04T12:42:59;7.10;99.90
3488;DHT22;38546;48.170;11.724;2023-03-04T12:53:34;7.30;99.90
3488;DHT22;38546;48.170;11.724;2023-03-04T12:56:53;7.40;99.90
3488;DHT22;38546;48.170;11.724;2023-03-04T13:09:32;7.00;99.90
3488;DHT22;38546;48.170;11.724;2023-03-04T13:12:26;7.10;99.90
3488;DHT22;38546;48.170;11.724;2023-03-04T13:15:37;7.20;99.90
3488;DHT22;38546;48.170;11.724;2023-03-04T13:18:32;6.90;99.90
3488;DHT22;38546;48.170;11.724;2023-03-04T13:21:31;6.70;99.90
3488;DHT22;38546;48.170;11.724;2023-03-04T13:24:44;6.80;99.90
3488;DHT22;38546;48.170;11.724;2023-03-04T13:27:49;6.60;99.90
3488;DHT22;38546;48.170;11.724;2023-03-04T13:31:15;6.50;99.90
3488;DHT22;38546;48.170;11.724;2023-03-04T13:34:44;6.40;99.90
3488;DHT22;38546;48.170;11.724;2023-03-04T13:37:56;6.30;99.90
3488;DHT22;38546;48.170;11.724;2023-03-04T13:41:19;6.20;99.90
3488;DHT22;38546;48.170;11.724;2023-03-04T13:52:39;6.30;99.90
3488;DHT22;38546;48.170;11.724;2023-03-04T13:55:37;6.30;99.90
3488;DHT22;38546;48.170;11.724;2023-03-04T13:58:31;6.10;99.90
3488;DHT22;38546;48.170;11.724;2023-03-04T14:01:28;6.10;99.90
3488;DHT22;38546;48.170;11.724;2023-03-04T14:04:31;6.20;99.90
3488;DHT22;38546;48.170;11.724;2023-03-04T14:07:33;6.20;99.90
3488;DHT22;38546;48.170;11.724;2023-03-04T14:10:24;6.20;99.90
3488;DHT22;38546;48.170;11.724;2023-03-04T14:13:14;6.10;99.90
3488;DHT22;38546;48.170;11.724;2023-03-04T14:16:03;6.20;99.90
3488;DHT22;38546;48.170;11.724;2023-03-04T14:19:02;6.20;99.90
3488;DHT22;38546;48.170;11.724;2023-03-04T14:21:54;5.80;99.90
3488;DHT22;38546;48.170;11.724;2023-03-04T14:25:23;5.80;99.90
3488;DHT22;38546;48.170;11.724;2023-03-04T14:28:16;5.80;99.90
3488;DHT22;38546;48.170;11.724;2023-03-04T14:31:15;5.90;99.90
3488;DHT22;38546;48.170;11.724;2023-03-04T14:34:22;5.50;99.90
3488;DHT22;38546;48.170;11.724;2023-03-04T14:37:42;5.60;99.90
3488;DHT22;38546;48.170;11.724;2023-03-04T14:40:44;5.50;99.90
3488;DHT22;38546;48.170;11.724;2023-03-04T14:43:51;5.50;99.90
3488;DHT22;38546;48.170;11.724;2023-03-04T14:46:49;5.40;99.90
3488;DHT22;38546;48.170;11.724;2023-03-04T14:49:40;5.50;99.90
3488;DHT22;38546;48.170;11.724;2023-03-04T14:52:36;5.30;99.90
3488;DHT22;38546;48.170;11.724;2023-03-04T14:55:27;5.30;99.90
3488;DHT22;38546;48.170;11.724;2023-03-04T14:58:21;5.40;99.90
3488;DHT22;38546;48.170;11.724;2023-03-04T15:01:18;5.10;99.90
3488;DHT22;38546;48.170;11.724;2023-03-04T15:04:10;5.00;99.90
3488;DHT22;38546;48.170;11.724;2023-03-04T15:07:00;4.90;99.90
3488;DHT22;38546;48.170;11.724;2023-03-04T15:09:54;4.70;99.90
3488;DHT22;38546;48.170;11.724;2023-03-04T15:12:51;4.60;99.90
3488;DHT22;38546;48.170;11.724;2023-03-04T15:15:45;4.60;99.90
3488;DHT22;38546;48.170;11.724;2023-03-04T15:18:34;4.50;99.90
3488;DHT22;38546;48.170;11.724;2023-03-04T15:21:33;4.40;99.90
3488;DHT22;38546;48.170;11.724;2023-03-04T15:24:27;4.40;99.90
3488;DHT22;38546;48.170;11.724;2023-03-04T15:27:16;4.50;99.90
3488;DHT22;38546;48.170;11.724;2023-03-04T15:30:15;4.30;99.90
3488;DHT22;38546;48.170;11.724;2023-03-04T15:33:10;4.30;99.90
3488;DHT22;38546;48.170;11.724;2023-03-04T15:36:01;4.10;99.90
3488;DHT22;38546;48.170;11.724;2023-03-04T15:38:52;4.10;99.90
3488;DHT22;38546;48.170;11.724;2023-03-04T15:41:41;4.10;99.90
3488;DHT22;38546;48.170;11.724;2023-03-04T15:44:31;4.20;99.90
3488;DHT22;38546;48.170;11.724;2023-03-04T15:47:20;4.20;99.90
3488;DHT22;38546;48.170;11.724;2023-03-04T15:50:10;3.90;99.90
3488;DHT22;38546;48.170;11.724;2023-03-04T15:53:02;4.00;99.90
3488;DHT22;38546;48.170;11.724;2023-03-04T15:55:54;4.00;99.90
3488;DHT22;38546;48.170;11.724;2023-03-04T15:58:43;3.80;99.90
3488;DHT22;38546;48.170;11.724;2023-03-04T16:01:35;3.80;99.90
3488;DHT22;38546;48.170;11.724;2023-03-04T16:04:24;3.70;99.90
3488;DHT22;38546;48.170;11.724;2023-03-04T16:07:17;3.60;99.90
3488;DHT22;38546;48.170;11.724;2023-03-04T16:10:20;3.60;99.90
3488;DHT22;38546;48.170;11.724;2023-03-04T16:13:15;3.50;99.90
3488;DHT22;38546;48.170;11.724;2023-03-04T16:16:12;3.30;99.90
3488;DHT22;38546;48.170;11.724;2023-03-04T16:19:11;3.30;99.90
3488;DHT22;38546;48.170;11.724;2023-03-04T16:22:01;3.20;99.90
3488;DHT22;38546;48.170;11.724;2023-03-04T16:24:51;3.10;99.90
3488;DHT22;38546;48.170;11.724;2023-03-04T16:27:43;3.00;99.90
3488;DHT22;38546;48.170;11.724;2023-03-04T16:30:32;3.00;99.90
3488;DHT22;38546;48.170;11.724;2023-03-04T16:33:21;2.90;99.90
3488;DHT22;38546;48.170;11.724;2023-03-04T16:36:23;2.80;99.90
3488;DHT22;38546;48.170;11.724;2023-03-04T16:39:21;2.70;99.90
3488;DHT22;38546;48.170;11.724;2023-03-04T16:42:14;2.60;99.90
3488;DHT22;38546;48.170;11.724;2023-03-04T16:45:24;2.60;99.90
3488;DHT22;38546;48.170;11.724;2023-03-04T16:48:15;2.40;99.90
3488;DHT22;38546;48.170;11.724;2023-03-04T16:51:12;2.40;99.90
3488;DHT22;38546;48.170;11.724;2023-03-04T16:54:03;2.10;99.90
3488;DHT22;38546;48.170;11.724;2023-03-04T16:56:52;2.30;99.90
3488;DHT22;38546;48.170;11.724;2023-03-04T16:59:42;2.20;99.90
3488;DHT22;38546;48.170;11.724;2023-03-04T17:02:31;2.30;99.90
3488;DHT22;38546;48.170;11.724;2023-03-04T17:05:22;2.20;99.90
3488;DHT22;38546;48.170;11.724;2023-03-04T17:08:12;2.00;99.90
3488;DHT22;38546;48.170;11.724;2023-03-04T17:11:02;2.10;99.90
3488;DHT22;38546;48.170;11.724;2023-03-04T17:13:51;2.00;99.90
3488;DHT22;38546;48.170;11.724;2023-03-04T17:16:40;2.20;99.90
3488;DHT22;38546;48.170;11.724;2023-03-04T17:19:29;2.10;99.90
3488;DHT22;38546;48.170;11.724;2023-03-04T17:22:18;2.00;99.90
3488;DHT22;38546;48.170;11.724;2023-03-04T17:25:08;2.20;99.90
3488;DHT22;38546;48.170;11.724;2023-03-04T17:27:58;2.10;99.90
3488;DHT22;38546;48.170;11.724;2023-03-04T17:30:47;2.00;99.90
3488;DHT22;38546;48.170;11.724;2023-03-04T17:33:35;2.00;99.90
3488;DHT22;38546;48.170;11.724;2023-03-04T17:36:25;2.00;99.90
3488;DHT22;38546;48.170;11.724;2023-03-04T17:39:14;2.10;99.90
3488;DHT22;38546;48.170;11.724;2023-03-04T17:42:04;2.00;99.90
3488;DHT22;38546;48.170;11.724;2023-03-04T17:44:53;1.80;99.90
3488;DHT22;38546;48.170;11.724;2023-03-04T17:47:42;2.00;99.90
3488;DHT22;38546;48.170;11.724;2023-03-04T17:50:32;1.80;99.90
3488;DHT22;38546;48.170;11.724;2023-03-04T17:53:22;1.80;99.90
3488;DHT22;38546;48.170;11.724;2023-03-04T17:56:11;2.10;99.90
3488;DHT22;38546;48.170;11.724;2023-03-04T17:59:05;1.90;99.90
3488;DHT22;38546;48.170;11.724;2023-03-04T18:01:56;1.80;99.90
3488;DHT22;38546;48.170;11.724;2023-03-04T18:04:45;1.80;99.90
3488;DHT22;38546;48.170;11.724;2023-03-04T18:07:36;1.60;99.90
3488;DHT22;38546;48.170;11.724;2023-03-04T18:10:26;1.60;99.90
3488;DHT22;38546;48.170;11.724;2023-03-04T18:13:16;1.70;99.90
3488;DHT22;38546;48.170;11.724;2023-03-04T18:16:06;1.70;99.90
3488;DHT22;38546;48.170;11.724;2023-03-04T18:18:58;1.60;99.90
3488;DHT22;38546;48.170;11.724;2023-03-04T18:21:47;1.70;99.90
3488;DHT22;38546;48.170;11.724;2023-03-04T18:24:36;1.60;99.90
3488;DHT22;38546;48.170;11.724;2023-03-04T18:27:29;1.60;99.90
3488;DHT22;38546;48.170;11.724;2023-03-04T18:30:19;1.60;99.90
3488;DHT22;38546;48.170;11.724;2023-03-04T18:33:15;1.50;99.90
3488;DHT22;38546;48.170;11.724;2023-03-04T18:36:06;1.50;99.90
3488;DHT22;38546;48.170;11.724;2023-03-04T18:38:57;1.40;99.90
3488;DHT22;38546;48.170;11.724;2023-03-04T18:41:47;1.40;99.90
3488;DHT22;38546;48.170;11.724;2023-03-04T18:44:36;1.40;99.90
3488;DHT22;38546;48.170;11.724;2023-03-04T18:47:26;1.50;99.90
3488;DHT22;38546;48.170;11.724;2023-03-04T18:50:16;1.40;99.90
3488;DHT22;38546;48.170;11.724;2023-03-04T18:53:05;1.40;99.90
3488;DHT22;38546;48.170;11.724;2023-03-04T18:55:57;1.30;99.90
3488;DHT22;38546;48.170;11.724;2023-03-04T18:58:51;1.30;99.90
3488;DHT22;38546;48.170;11.724;2023-03-04T19:01:40;1.30;99.90
3488;DHT22;38546;48.170;11.724;2023-03-04T19:04:30;1.30;99.90
3488;DHT22;38546;48.170;11.724;2023-03-04T19:07:20;1.30;99.90
3488;DHT22;38546;48.170;11.724;2023-03-04T19:10:10;1.10;99.90
3488;DHT22;38546;48.170;11.724;2023-03-04T19:13:00;1.10;99.90
3488;DHT22;38546;48.170;11.724;2023-03-04T19:15:51;1.30;99.90
3488;DHT22;38546;48.170;11.724;2023-03-04T19:18:42;1.40;99.90
3488;DHT22;38546;48.170;11.724;2023-03-04T19:21:35;1.40;99.90
3488;DHT22;38546;48.170;11.724;2023-03-04T19:24:29;1.30;99.90
3488;DHT22;38546;48.170;11.724;2023-03-04T19:27:18;1.20;99.90
3488;DHT22;38546;48.170;11.724;2023-03-04T19:30:08;1.10;99.90
3488;DHT22;38546;48.170;11.724;2023-03-04T19:32:58;1.20;99.90
3488;DHT22;38546;48.170;11.724;2023-03-04T19:35:48;1.10;99.90
3488;DHT22;38546;48.170;11.724;2023-03-04T19:38:37;1.10;99.90
3488;DHT22;38546;48.170;11.724;2023-03-04T19:41:26;1.00;99.90
3488;DHT22;38546;48.170;11.724;2023-03-04T19:44:16;1.10;99.90
3488;DHT22;38546;48.170;11.724;2023-03-04T19:47:06;1.00;99.90
3488;DHT22;38546;48.170;11.724;2023-03-04T19:49:55;1.00;99.90